sensor_id;sensor_type;location;lat;lon;timestamp;pressure;altitude;pressure_sealevel;temperature;humidity
8051;BME280;4068;42.158;24.732;2023-04-26T00:01:57;98686.66;;;12.39;100.00
8051;BME280;4068;42.158;24.732;2023-04-26T00:04:23;98674.34;;;12.38;100.00
8051;BME280;4068;42.158;24.732;2023-04-26T00:06:49;98666.19;;;12.32;100.00
8051;BME280;4068;42.158;24.732;2023-04-26T00:09:15;98669.72;;;12.40;100.00
8051;BME280;4068;42.158;24.732;2023-04-26T00:11:40;98678.50;;;12.41;100.00
8051;BME280;4068;42.158;24.732;2023-04-26T00:14:06;98674.72;;;12.43;100.00
8051;BME280;4068;42.158;24.732;2023-04-26T00:16:31;98683.25;;;12.55;100.00
8051;BME280;4068;42.158;24.732;2023-04-26T00:18:57;98679.13;;;12.61;100.00
8051;BME280;4068;42.158;24.732;2023-04-26T00:21:22;98665.22;;;12.41;100.00
8051;BME280;4068;42.158;24.732;2023-04-26T00:23:47;98668.09;;;12.48;100.00
8051;BME280;4068;42.158;24.732;2023-04-26T00:26:13;98665.19;;;12.33;100.00
8051;BME280;4068;42.158;24.732;2023-04-26T00:28:38;98659.50;;;12.28;100.00
8051;BME280;4068;42.158;24.732;2023-04-26T00:31:04;98662.00;;;12.29;100.00
8051;BME280;4068;42.158;24.732;2023-04-26T00:33:29;98648.03;;;12.27;100.00
8051;BME280;4068;42.158;24.732;2023-04-26T00:35:55;98647.13;;;12.18;100.00
8051;BME280;4068;42.158;24.732;2023-04-26T00:38:20;98652.34;;;12.28;100.00
8051;BME280;4068;42.158;24.732;2023-04-26T00:40:45;98644.22;;;12.30;100.00
8051;BME280;4068;42.158;24.732;2023-04-26T00:43:11;98625.56;;;12.21;100.00
8051;BME280;4068;42.158;24.732;2023-04-26T00:45:36;98630.09;;;12.29;100.00
8051;BME280;4068;42.158;24.732;2023-04-26T00:48:02;98631.03;;;12.20;100.00
8051;BME280;4068;42.158;24.732;2023-04-26T00:50:28;98620.88;;;12.15;100.00
8051;BME280;4068;42.158;24.732;2023-04-26T00:52:58;98595.75;;;12.09;100.00
8051;BME280;4068;42.158;24.732;2023-04-26T00:55:24;98609.41;;;12.15;100.00
8051;BME280;4068;42.158;24.732;2023-04-26T00:57:51;98615.06;;;12.20;100.00
8051;BME280;4068;42.158;24.732;2023-04-26T01:00:18;98618.59;;;12.20;100.00
8051;BME280;4068;42.158;24.732;2023-04-26T01:02:43;98613.28;;;12.20;100.00
8051;BME280;4068;42.158;24.732;2023-04-26T01:05:09;98619.78;;;12.26;100.00
8051;BME280;4068;42.158;24.732;2023-04-26T01:07:35;98596.88;;;12.07;100.00
8051;BME280;4068;42.158;24.732;2023-04-26T01:10:02;98594.72;;;12.02;100.00
8051;BME280;4068;42.158;24.732;2023-04-26T01:12:29;98622.66;;;12.06;100.00
8051;BME280;4068;42.158;24.732;2023-04-26T01:14:55;98627.44;;;12.03;100.00
8051;BME280;4068;42.158;24.732;2023-04-26T01:17:21;98623.44;;;11.99;100.00
8051;BME280;4068;42.158;24.732;2023-04-26T01:19:48;98602.31;;;11.79;100.00
8051;BME280;4068;42.158;24.732;2023-04-26T01:22:14;98601.13;;;11.73;100.00
8051;BME280;4068;42.158;24.732;2023-04-26T01:24:41;98630.31;;;11.91;100.00
8051;BME280;4068;42.158;24.732;2023-04-26T01:27:08;98631.47;;;11.89;100.00
8051;BME280;4068;42.158;24.732;2023-04-26T01:29:34;98621.91;;;11.78;100.00
8051;BME280;4068;42.158;24.732;2023-04-26T01:31:59;98621.53;;;11.73;100.00
8051;BME280;4068;42.158;24.732;2023-04-26T01:34:25;98596.13;;;11.52;100.00
8051;BME280;4068;42.158;24.732;2023-04-26T01:36:50;98616.00;;;11.66;100.00
8051;BME280;4068;42.158;24.732;2023-04-26T01:39:16;98620.09;;;11.61;100.00
8051;BME280;4068;42.158;24.732;2023-04-26T01:41:41;98594.25;;;11.45;100.00
8051;BME280;4068;42.158;24.732;2023-04-26T01:44:07;98606.13;;;11.58;100.00
8051;BME280;4068;42.158;24.732;2023-04-26T01:46:32;98598.41;;;11.47;100.00
8051;BME280;4068;42.158;24.732;2023-04-26T01:48:58;98602.06;;;11.46;100.00
8051;BME280;4068;42.158;24.732;2023-04-26T01:51:23;98598.69;;;11.44;100.00
8051;BME280;4068;42.158;24.732;2023-04-26T01:53:49;98569.69;;;11.25;100.00
8051;BME280;4068;42.158;24.732;2023-04-26T01:56:15;98611.69;;;11.47;100.00
8051;BME280;4068;42.158;24.732;2023-04-26T01:58:42;98611.31;;;11.42;100.00
8051;BME280;4068;42.158;24.732;2023-04-26T02:01:08;98579.69;;;11.31;100.00
8051;BME280;4068;42.158;24.732;2023-04-26T02:03:34;98572.91;;;11.18;100.00
8051;BME280;4068;42.158;24.732;2023-04-26T02:05:59;98607.19;;;11.30;100.00
8051;BME280;4068;42.158;24.732;2023-04-26T02:08:25;98590.66;;;11.18;100.00
8051;BME280;4068;42.158;24.732;2023-04-26T02:10:51;98614.03;;;11.32;100.00
8051;BME280;4068;42.158;24.732;2023-04-26T02:13:16;98620.78;;;11.27;100.00
8051;BME280;4068;42.158;24.732;2023-04-26T02:15:45;98621.84;;;11.34;100.00
8051;BME280;4068;42.158;24.732;2023-04-26T02:18:11;98615.91;;;11.40;100.00
8051;BME280;4068;42.158;24.732;2023-04-26T02:20:39;98610.84;;;11.29;100.00
8051;BME280;4068;42.158;24.732;2023-04-26T02:23:07;98622.22;;;11.39;100.00
8051;BME280;4068;42.158;24.732;2023-04-26T02:25:33;98635.34;;;11.40;100.00
8051;BME280;4068;42.158;24.732;2023-04-26T02:27:58;98623.88;;;11.40;100.00
8051;BME280;4068;42.158;24.732;2023-04-26T02:30:23;98625.03;;;11.37;100.00
8051;BME280;4068;42.158;24.732;2023-04-26T02:32:49;98607.03;;;11.31;100.00
8051;BME280;4068;42.158;24.732;2023-04-26T02:35:17;98633.91;;;11.46;100.00
8051;BME280;4068;42.158;24.732;2023-04-26T02:37:42;98632.94;;;11.47;100.00
8051;BME280;4068;42.158;24.732;2023-04-26T02:40:08;98632.22;;;11.45;100.00
8051;BME280;4068;42.158;24.732;2023-04-26T02:42:35;98635.25;;;11.32;100.00
8051;BME280;4068;42.158;24.732;2023-04-26T02:45:00;98638.38;;;11.28;100.00
8051;BME280;4068;42.158;24.732;2023-04-26T02:47:25;98645.22;;;11.30;100.00
8051;BME280;4068;42.158;24.732;2023-04-26T02:49:51;98621.75;;;11.26;100.00
8051;BME280;4068;42.158;24.732;2023-04-26T02:52:16;98645.41;;;11.37;100.00
8051;BME280;4068;42.158;24.732;2023-04-26T02:54:42;98641.19;;;11.44;100.00
8051;BME280;4068;42.158;24.732;2023-04-26T02:57:07;98636.72;;;11.45;100.00
8051;BME280;4068;42.158;24.732;2023-04-26T02:59:33;98641.19;;;11.44;100.00
8051;BME280;4068;42.158;24.732;2023-04-26T03:01:58;98641.81;;;11.56;100.00
8051;BME280;4068;42.158;24.732;2023-04-26T03:04:23;98634.19;;;11.61;100.00
8051;BME280;4068;42.158;24.732;2023-04-26T03:06:49;98627.53;;;11.75;100.00
8051;BME280;4068;42.158;24.732;2023-04-26T03:09:14;98628.56;;;11.82;100.00
8051;BME280;4068;42.158;24.732;2023-04-26T03:11:40;98611.50;;;11.85;100.00
8051;BME280;4068;42.158;24.732;2023-04-26T03:14:05;98619.31;;;12.04;100.00
8051;BME280;4068;42.158;24.732;2023-04-26T03:16:40;98619.16;;;12.06;100.00
8051;BME280;4068;42.158;24.732;2023-04-26T03:19:06;98623.44;;;11.99;100.00
8051;BME280;4068;42.158;24.732;2023-04-26T03:21:31;98607.47;;;11.81;100.00
8051;BME280;4068;42.158;24.732;2023-04-26T03:23:56;98628.50;;;11.92;100.00
8051;BME280;4068;42.158;24.732;2023-04-26T03:26:22;98616.75;;;11.95;100.00
8051;BME280;4068;42.158;24.732;2023-04-26T03:28:47;98619.41;;;11.95;100.00
8051;BME280;4068;42.158;24.732;2023-04-26T03:31:13;98628.97;;;11.87;100.00
8051;BME280;4068;42.158;24.732;2023-04-26T03:33:38;98628.00;;;11.70;100.00
8051;BME280;4068;42.158;24.732;2023-04-26T03:36:04;98623.88;;;11.58;100.00
8051;BME280;4068;42.158;24.732;2023-04-26T03:38:29;98632.94;;;11.47;100.00
8051;BME280;4068;42.158;24.732;2023-04-26T03:40:54;98637.00;;;11.23;100.00
8051;BME280;4068;42.158;24.732;2023-04-26T03:43:20;98639.31;;;11.09;100.00
8051;BME280;4068;42.158;24.732;2023-04-26T03:45:46;98621.75;;;10.80;100.00
8051;BME280;4068;42.158;24.732;2023-04-26T03:48:13;98634.22;;;10.69;100.00
8051;BME280;4068;42.158;24.732;2023-04-26T03:50:38;98653.63;;;10.70;100.00
8051;BME280;4068;42.158;24.732;2023-04-26T03:53:04;98660.19;;;10.66;100.00
8051;BME280;4068;42.158;24.732;2023-04-26T03:55:29;98625.09;;;10.44;100.00
8051;BME280;4068;42.158;24.732;2023-04-26T03:57:55;98662.81;;;10.76;100.00
8051;BME280;4068;42.158;24.732;2023-04-26T04:00:20;98648.59;;;10.67;100.00
8051;BME280;4068;42.158;24.732;2023-04-26T04:02:46;98647.47;;;10.69;100.00
8051;BME280;4068;42.158;24.732;2023-04-26T04:05:11;98658.34;;;10.76;100.00
8051;BME280;4068;42.158;24.732;2023-04-26T04:07:36;98666.00;;;10.79;100.00
8051;BME280;4068;42.158;24.732;2023-04-26T04:10:02;98655.78;;;10.84;100.00
8051;BME280;4068;42.158;24.732;2023-04-26T04:12:28;98671.00;;;10.82;100.00
8051;BME280;4068;42.158;24.732;2023-04-26T04:14:53;98667.69;;;10.80;100.00
8051;BME280;4068;42.158;24.732;2023-04-26T04:17:19;98652.91;;;10.78;100.00
8051;BME280;4068;42.158;24.732;2023-04-26T04:19:44;98645.09;;;10.76;100.00
8051;BME280;4068;42.158;24.732;2023-04-26T04:22:10;98648.22;;;10.90;100.00
8051;BME280;4068;42.158;24.732;2023-04-26T04:24:36;98654.72;;;11.05;100.00
8051;BME280;4068;42.158;24.732;2023-04-26T04:27:02;98653.75;;;11.06;100.00
8051;BME280;4068;42.158;24.732;2023-04-26T04:29:28;98654.81;;;11.13;100.00
8051;BME280;4068;42.158;24.732;2023-04-26T04:31:53;98656.31;;;11.16;100.00
8051;BME280;4068;42.158;24.732;2023-04-26T04:34:18;98648.06;;;11.19;100.00
8051;BME280;4068;42.158;24.732;2023-04-26T04:36:44;98658.38;;;11.22;100.00
8051;BME280;4068;42.158;24.732;2023-04-26T04:39:09;98641.09;;;11.18;100.00
8051;BME280;4068;42.158;24.732;2023-04-26T04:41:43;98663.69;;;11.40;100.00
8051;BME280;4068;42.158;24.732;2023-04-26T04:44:13;98675.09;;;11.50;100.00
8051;BME280;4068;42.158;24.732;2023-04-26T04:46:40;98639.47;;;11.53;100.00
8051;BME280;4068;42.158;24.732;2023-04-26T04:49:05;98660.31;;;11.66;100.00
8051;BME280;4068;42.158;24.732;2023-04-26T04:51:33;98650.81;;;11.81;100.00
8051;BME280;4068;42.158;24.732;2023-04-26T04:54:07;98619.41;;;11.77;100.00
8051;BME280;4068;42.158;24.732;2023-04-26T04:56:33;98662.78;;;12.21;100.00
8051;BME280;4068;42.158;24.732;2023-04-26T04:58:58;98669.31;;;12.27;100.00
8051;BME280;4068;42.158;24.732;2023-04-26T05:01:23;98675.13;;;12.31;100.00
8051;BME280;4068;42.158;24.732;2023-04-26T05:03:49;98674.41;;;12.47;100.00
8051;BME280;4068;42.158;24.732;2023-04-26T05:06:14;98685.00;;;12.65;100.00
8051;BME280;4068;42.158;24.732;2023-04-26T05:08:40;98666.31;;;12.83;100.00
8051;BME280;4068;42.158;24.732;2023-04-26T05:11:05;98658.91;;;13.03;100.00
8051;BME280;4068;42.158;24.732;2023-04-26T05:13:31;98680.47;;;13.42;100.00
8051;BME280;4068;42.158;24.732;2023-04-26T05:15:56;98675.06;;;13.69;100.00
8051;BME280;4068;42.158;24.732;2023-04-26T05:18:21;98675.41;;;13.98;100.00
8051;BME280;4068;42.158;24.732;2023-04-26T05:20:47;98678.22;;;14.22;100.00
8051;BME280;4068;42.158;24.732;2023-04-26T05:23:12;98667.56;;;14.22;100.00
8051;BME280;4068;42.158;24.732;2023-04-26T05:25:38;98685.38;;;14.38;100.00
8051;BME280;4068;42.158;24.732;2023-04-26T05:28:03;98682.16;;;14.50;100.00
8051;BME280;4068;42.158;24.732;2023-04-26T05:30:28;98664.66;;;14.56;100.00
8051;BME280;4068;42.158;24.732;2023-04-26T05:32:54;98688.75;;;14.96;100.00
8051;BME280;4068;42.158;24.732;2023-04-26T05:35:21;98668.72;;;15.00;100.00
8051;BME280;4068;42.158;24.732;2023-04-26T05:37:46;98693.78;;;15.30;100.00
8051;BME280;4068;42.158;24.732;2023-04-26T05:40:12;98698.91;;;15.40;99.77
8051;BME280;4068;42.158;24.732;2023-04-26T05:42:38;98678.31;;;15.49;99.81
8051;BME280;4068;42.158;24.732;2023-04-26T05:45:04;98665.09;;;15.56;100.00
8051;BME280;4068;42.158;24.732;2023-04-26T05:47:29;98667.72;;;15.87;97.85
8051;BME280;4068;42.158;24.732;2023-04-26T05:49:55;98658.31;;;16.14;95.66
8051;BME280;4068;42.158;24.732;2023-04-26T05:52:20;98677.38;;;16.64;93.47
8051;BME280;4068;42.158;24.732;2023-04-26T05:54:45;98676.41;;;16.80;92.10
8051;BME280;4068;42.158;24.732;2023-04-26T05:57:11;98690.34;;;17.05;89.75
8051;BME280;4068;42.158;24.732;2023-04-26T05:59:37;98677.84;;;17.13;86.18
8051;BME280;4068;42.158;24.732;2023-04-26T06:02:02;98680.06;;;17.24;86.05
8051;BME280;4068;42.158;24.732;2023-04-26T06:04:28;98670.13;;;17.54;83.75
8051;BME280;4068;42.158;24.732;2023-04-26T06:06:54;98669.72;;;17.79;83.81
8051;BME280;4068;42.158;24.732;2023-04-26T06:09:20;98671.81;;;17.99;82.97
8051;BME280;4068;42.158;24.732;2023-04-26T06:11:45;98671.13;;;18.18;81.46
8051;BME280;4068;42.158;24.732;2023-04-26T06:14:10;98671.59;;;18.22;80.96
8051;BME280;4068;42.158;24.732;2023-04-26T06:16:36;98667.34;;;18.06;82.10
8051;BME280;4068;42.158;24.732;2023-04-26T06:19:01;98670.22;;;18.04;82.01
8051;BME280;4068;42.158;24.732;2023-04-26T06:21:27;98676.09;;;17.93;82.30
8051;BME280;4068;42.158;24.732;2023-04-26T06:23:52;98637.81;;;17.84;81.71
8051;BME280;4068;42.158;24.732;2023-04-26T06:26:18;98672.31;;;18.09;80.89
8051;BME280;4068;42.158;24.732;2023-04-26T06:28:43;98670.50;;;18.16;81.74
8051;BME280;4068;42.158;24.732;2023-04-26T06:31:09;98668.97;;;18.28;81.21
8051;BME280;4068;42.158;24.732;2023-04-26T06:33:34;98667.38;;;18.41;80.75
8051;BME280;4068;42.158;24.732;2023-04-26T06:35:59;98652.34;;;18.46;81.62
8051;BME280;4068;42.158;24.732;2023-04-26T06:38:25;98669.28;;;18.82;79.14
8051;BME280;4068;42.158;24.732;2023-04-26T06:40:50;98674.88;;;18.80;79.26
8051;BME280;4068;42.158;24.732;2023-04-26T06:43:16;98653.78;;;18.77;79.26
8051;BME280;4068;42.158;24.732;2023-04-26T06:45:42;98670.50;;;18.79;77.30
8051;BME280;4068;42.158;24.732;2023-04-26T06:48:07;98638.94;;;18.46;77.47
8051;BME280;4068;42.158;24.732;2023-04-26T06:50:36;98637.84;;;18.41;78.22
8051;BME280;4068;42.158;24.732;2023-04-26T06:53:02;98653.81;;;18.49;79.40
8051;BME280;4068;42.158;24.732;2023-04-26T06:55:28;98659.78;;;18.44;80.33
8051;BME280;4068;42.158;24.732;2023-04-26T06:57:53;98638.44;;;18.36;80.15
8051;BME280;4068;42.158;24.732;2023-04-26T07:00:19;98650.13;;;18.57;80.80
8051;BME280;4068;42.158;24.732;2023-04-26T07:02:45;98660.97;;;18.70;80.92
8051;BME280;4068;42.158;24.732;2023-04-26T07:05:10;98656.66;;;18.76;79.76
8051;BME280;4068;42.158;24.732;2023-04-26T07:07:36;98647.41;;;18.85;79.51
8051;BME280;4068;42.158;24.732;2023-04-26T07:10:02;98656.56;;;18.91;78.93
8051;BME280;4068;42.158;24.732;2023-04-26T07:12:28;98666.88;;;18.87;79.38
8051;BME280;4068;42.158;24.732;2023-04-26T07:14:53;98665.28;;;19.00;78.87
8051;BME280;4068;42.158;24.732;2023-04-26T07:17:18;98660.81;;;18.78;79.33
8051;BME280;4068;42.158;24.732;2023-04-26T07:19:45;98676.00;;;18.93;79.41
8051;BME280;4068;42.158;24.732;2023-04-26T07:22:10;98668.66;;;19.08;78.88
8051;BME280;4068;42.158;24.732;2023-04-26T07:24:54;98678.81;;;19.20;78.02
8051;BME280;4068;42.158;24.732;2023-04-26T07:27:20;98675.59;;;19.44;77.30
8051;BME280;4068;42.158;24.732;2023-04-26T07:29:45;98673.56;;;19.60;76.27
8051;BME280;4068;42.158;24.732;2023-04-26T07:32:11;98682.47;;;19.67;75.29
8051;BME280;4068;42.158;24.732;2023-04-26T07:34:37;98665.97;;;19.77;75.16
8051;BME280;4068;42.158;24.732;2023-04-26T07:37:02;98681.75;;;20.27;72.67
8051;BME280;4068;42.158;24.732;2023-04-26T07:39:28;98678.00;;;19.94;71.26
8051;BME280;4068;42.158;24.732;2023-04-26T07:41:54;98636.19;;;19.98;66.27
8051;BME280;4068;42.158;24.732;2023-04-26T07:44:19;98670.56;;;20.30;61.76
8051;BME280;4068;42.158;24.732;2023-04-26T07:46:45;98673.44;;;19.95;63.07
8051;BME280;4068;42.158;24.732;2023-04-26T07:49:10;98664.56;;;20.14;61.83
8051;BME280;4068;42.158;24.732;2023-04-26T07:51:36;98678.00;;;20.41;61.32
8051;BME280;4068;42.158;24.732;2023-04-26T07:54:01;98645.94;;;20.13;60.36
8051;BME280;4068;42.158;24.732;2023-04-26T07:56:27;98685.25;;;20.07;62.74
8051;BME280;4068;42.158;24.732;2023-04-26T07:58:52;98678.03;;;20.01;62.80
8051;BME280;4068;42.158;24.732;2023-04-26T08:01:17;98645.72;;;20.08;62.85
8051;BME280;4068;42.158;24.732;2023-04-26T08:03:43;98676.78;;;20.24;62.79
8051;BME280;4068;42.158;24.732;2023-04-26T08:06:08;98665.75;;;20.65;61.89
8051;BME280;4068;42.158;24.732;2023-04-26T08:08:34;98657.28;;;20.68;61.35
8051;BME280;4068;42.158;24.732;2023-04-26T08:11:07;98667.34;;;20.93;60.23
8051;BME280;4068;42.158;24.732;2023-04-26T08:13:32;98657.94;;;21.16;59.27
8051;BME280;4068;42.158;24.732;2023-04-26T08:15:58;98667.41;;;21.32;58.21
8051;BME280;4068;42.158;24.732;2023-04-26T08:18:23;98635.13;;;21.25;56.81
8051;BME280;4068;42.158;24.732;2023-04-26T08:20:49;98643.19;;;21.25;58.03
8051;BME280;4068;42.158;24.732;2023-04-26T08:23:14;98652.56;;;21.16;57.36
8051;BME280;4068;42.158;24.732;2023-04-26T08:25:40;98650.38;;;20.86;57.87
8051;BME280;4068;42.158;24.732;2023-04-26T08:28:06;98651.13;;;21.13;57.41
8051;BME280;4068;42.158;24.732;2023-04-26T08:30:33;98619.81;;;21.12;55.89
8051;BME280;4068;42.158;24.732;2023-04-26T08:32:58;98641.66;;;21.43;57.42
8051;BME280;4068;42.158;24.732;2023-04-26T08:35:24;98618.28;;;21.30;55.34
8051;BME280;4068;42.158;24.732;2023-04-26T08:37:49;98633.22;;;21.26;53.98
8051;BME280;4068;42.158;24.732;2023-04-26T08:40:21;98631.78;;;20.64;55.64
8051;BME280;4068;42.158;24.732;2023-04-26T08:42:47;98632.22;;;20.55;56.56
8051;BME280;4068;42.158;24.732;2023-04-26T08:45:14;98625.56;;;20.71;56.97
8051;BME280;4068;42.158;24.732;2023-04-26T08:47:47;98632.63;;;20.45;57.54
8051;BME280;4068;42.158;24.732;2023-04-26T08:50:14;98619.63;;;20.15;57.20
8051;BME280;4068;42.158;24.732;2023-04-26T08:52:41;98626.22;;;20.39;56.74
8051;BME280;4068;42.158;24.732;2023-04-26T08:55:08;98618.56;;;20.49;56.48
8051;BME280;4068;42.158;24.732;2023-04-26T08:57:41;98624.16;;;20.41;57.00
8051;BME280;4068;42.158;24.732;2023-04-26T09:00:08;98605.31;;;20.48;57.62
8051;BME280;4068;42.158;24.732;2023-04-26T09:02:36;98612.31;;;20.62;54.25
8051;BME280;4068;42.158;24.732;2023-04-26T09:05:05;98618.31;;;20.58;52.53
8051;BME280;4068;42.158;24.732;2023-04-26T09:07:34;98600.09;;;20.46;50.42
8051;BME280;4068;42.158;24.732;2023-04-26T09:10:03;98629.72;;;20.53;50.97
8051;BME280;4068;42.158;24.732;2023-04-26T09:12:29;98627.84;;;20.60;49.66
8051;BME280;4068;42.158;24.732;2023-04-26T09:14:54;98620.38;;;20.69;51.40
8051;BME280;4068;42.158;24.732;2023-04-26T09:17:34;98616.56;;;21.03;51.82
8051;BME280;4068;42.158;24.732;2023-04-26T09:20:26;98604.69;;;21.50;50.37
8051;BME280;4068;42.158;24.732;2023-04-26T09:23:03;98610.44;;;21.92;49.95
8051;BME280;4068;42.158;24.732;2023-04-26T09:25:29;98598.19;;;22.15;49.75
8051;BME280;4068;42.158;24.732;2023-04-26T09:27:55;98588.81;;;22.17;43.21
8051;BME280;4068;42.158;24.732;2023-04-26T09:30:21;98586.34;;;22.16;41.44
8051;BME280;4068;42.158;24.732;2023-04-26T09:32:54;98607.13;;;22.15;44.91
8051;BME280;4068;42.158;24.732;2023-04-26T09:35:37;98616.56;;;22.68;44.01
8051;BME280;4068;42.158;24.732;2023-04-26T09:40:32;98606.34;;;23.26;43.46
8051;BME280;4068;42.158;24.732;2023-04-26T09:45:41;98611.56;;;23.82;43.46
8051;BME280;4068;42.158;24.732;2023-04-26T09:50:41;98592.31;;;24.37;40.86
8051;BME280;4068;42.158;24.732;2023-04-26T09:53:08;98574.88;;;24.45;41.43
8051;BME280;4068;42.158;24.732;2023-04-26T09:55:34;98601.69;;;24.82;41.10
8051;BME280;4068;42.158;24.732;2023-04-26T09:58:07;98601.00;;;24.75;41.45
8051;BME280;4068;42.158;24.732;2023-04-26T10:00:33;98594.66;;;24.57;42.17
8051;BME280;4068;42.158;24.732;2023-04-26T10:02:59;98594.69;;;24.98;41.27
8051;BME280;4068;42.158;24.732;2023-04-26T10:05:25;98584.63;;;25.51;41.31
8051;BME280;4068;42.158;24.732;2023-04-26T10:07:51;98576.41;;;25.80;40.59
8051;BME280;4068;42.158;24.732;2023-04-26T10:10:17;98575.91;;;25.83;40.40
8051;BME280;4068;42.158;24.732;2023-04-26T10:12:42;98582.47;;;25.70;40.97
8051;BME280;4068;42.158;24.732;2023-04-26T10:15:09;98575.00;;;25.77;41.62
8051;BME280;4068;42.158;24.732;2023-04-26T10:17:35;98570.28;;;26.24;40.14
8051;BME280;4068;42.158;24.732;2023-04-26T10:20:05;98556.19;;;26.44;39.84
8051;BME280;4068;42.158;24.732;2023-04-26T10:22:36;98568.50;;;26.51;39.63
8051;BME280;4068;42.158;24.732;2023-04-26T10:25:07;98558.44;;;25.96;39.76
8051;BME280;4068;42.158;24.732;2023-04-26T10:30:09;98557.47;;;26.02;38.07
8051;BME280;4068;42.158;24.732;2023-04-26T10:35:17;98559.38;;;24.93;39.35
8051;BME280;4068;42.158;24.732;2023-04-26T10:40:27;98566.13;;;23.30;43.14
8051;BME280;4068;42.158;24.732;2023-04-26T10:43:26;98575.91;;;22.82;43.71
8051;BME280;4068;42.158;24.732;2023-04-26T10:45:52;98565.09;;;22.01;45.38
8051;BME280;4068;42.158;24.732;2023-04-26T10:58:49;98566.00;;;19.73;52.56
8051;BME280;4068;42.158;24.732;2023-04-26T11:01:30;98582.34;;;19.52;52.29
8051;BME280;4068;42.158;24.732;2023-04-26T11:06:22;98576.06;;;19.18;52.86
8051;BME280;4068;42.158;24.732;2023-04-26T11:08:48;98565.53;;;19.16;53.38
8051;BME280;4068;42.158;24.732;2023-04-26T11:11:15;98568.25;;;19.23;53.99
8051;BME280;4068;42.158;24.732;2023-04-26T11:13:44;98567.03;;;19.39;54.77
8051;BME280;4068;42.158;24.732;2023-04-26T11:16:14;98560.00;;;19.64;54.42
8051;BME280;4068;42.158;24.732;2023-04-26T11:18:42;98549.06;;;19.99;52.96
8051;BME280;4068;42.158;24.732;2023-04-26T11:21:08;98572.38;;;20.39;52.54
8051;BME280;4068;42.158;24.732;2023-04-26T11:23:34;98572.91;;;20.81;50.41
8051;BME280;4068;42.158;24.732;2023-04-26T11:26:05;98563.78;;;21.21;49.38
8051;BME280;4068;42.158;24.732;2023-04-26T11:28:36;98582.50;;;21.80;48.43
8051;BME280;4068;42.158;24.732;2023-04-26T11:31:02;98577.50;;;22.27;46.87
8051;BME280;4068;42.158;24.732;2023-04-26T11:33:28;98556.47;;;22.36;45.44
8051;BME280;4068;42.158;24.732;2023-04-26T11:35:55;98576.22;;;22.55;45.44
8051;BME280;4068;42.158;24.732;2023-04-26T11:38:25;98578.72;;;22.31;45.25
8051;BME280;4068;42.158;24.732;2023-04-26T11:40:59;98585.44;;;22.47;44.95
8051;BME280;4068;42.158;24.732;2023-04-26T11:43:43;98591.25;;;22.00;43.88
8051;BME280;4068;42.158;24.732;2023-04-26T11:46:09;98581.22;;;21.50;45.10
8051;BME280;4068;42.158;24.732;2023-04-26T11:48:36;98599.56;;;20.96;46.40
8051;BME280;4068;42.158;24.732;2023-04-26T11:51:03;98600.16;;;20.40;47.39
8051;BME280;4068;42.158;24.732;2023-04-26T11:53:39;98602.25;;;20.04;49.36
8051;BME280;4068;42.158;24.732;2023-04-26T11:56:15;98616.31;;;19.79;49.48
8051;BME280;4068;42.158;24.732;2023-04-26T11:58:48;98622.47;;;19.66;50.27
8051;BME280;4068;42.158;24.732;2023-04-26T12:03:49;98620.38;;;19.42;49.55
8051;BME280;4068;42.158;24.732;2023-04-26T12:06:15;98619.16;;;19.51;49.90
8051;BME280;4068;42.158;24.732;2023-04-26T12:08:41;98622.06;;;19.76;49.12
8051;BME280;4068;42.158;24.732;2023-04-26T12:11:06;98596.00;;;19.63;51.59
8051;BME280;4068;42.158;24.732;2023-04-26T12:13:32;98618.09;;;19.52;57.16
8051;BME280;4068;42.158;24.732;2023-04-26T12:15:58;98621.81;;;19.38;58.80
8051;BME280;4068;42.158;24.732;2023-04-26T12:18:31;98632.63;;;18.96;58.96
8051;BME280;4068;42.158;24.732;2023-04-26T12:20:57;98621.47;;;18.99;61.27
8051;BME280;4068;42.158;24.732;2023-04-26T12:23:23;98628.28;;;18.95;63.37
8051;BME280;4068;42.158;24.732;2023-04-26T12:25:56;98598.41;;;18.76;62.46
8051;BME280;4068;42.158;24.732;2023-04-26T12:28:24;98615.72;;;19.09;61.50
8051;BME280;4068;42.158;24.732;2023-04-26T12:30:50;98610.22;;;19.30;61.54
8051;BME280;4068;42.158;24.732;2023-04-26T12:33:16;98610.16;;;19.10;57.25
8051;BME280;4068;42.158;24.732;2023-04-26T12:35:44;98610.97;;;19.11;58.61
8051;BME280;4068;42.158;24.732;2023-04-26T12:38:09;98613.41;;;18.99;60.01
8051;BME280;4068;42.158;24.732;2023-04-26T12:40:36;98614.69;;;18.68;62.82
8051;BME280;4068;42.158;24.732;2023-04-26T12:43:01;98612.56;;;18.57;64.90
8051;BME280;4068;42.158;24.732;2023-04-26T12:45:26;98607.88;;;18.31;68.61
8051;BME280;4068;42.158;24.732;2023-04-26T12:47:53;98608.69;;;18.31;70.13
8051;BME280;4068;42.158;24.732;2023-04-26T12:50:19;98603.13;;;18.33;69.84
8051;BME280;4068;42.158;24.732;2023-04-26T12:52:44;98581.06;;;17.81;63.70
8051;BME280;4068;42.158;24.732;2023-04-26T12:55:11;98608.25;;;18.27;60.64
8051;BME280;4068;42.158;24.732;2023-04-26T12:57:38;98605.94;;;18.53;58.22
8051;BME280;4068;42.158;24.732;2023-04-26T13:00:05;98593.44;;;18.38;65.31
8051;BME280;4068;42.158;24.732;2023-04-26T13:02:32;98589.75;;;18.39;65.50
8051;BME280;4068;42.158;24.732;2023-04-26T13:04:59;98600.88;;;18.36;66.56
8051;BME280;4068;42.158;24.732;2023-04-26T13:07:26;98604.22;;;18.45;65.84
8051;BME280;4068;42.158;24.732;2023-04-26T13:09:52;98598.97;;;18.58;64.62
8051;BME280;4068;42.158;24.732;2023-04-26T13:12:17;98585.34;;;18.60;65.42
8051;BME280;4068;42.158;24.732;2023-04-26T13:14:43;98597.38;;;18.77;62.94
8051;BME280;4068;42.158;24.732;2023-04-26T13:17:10;98596.09;;;18.67;61.29
8051;BME280;4068;42.158;24.732;2023-04-26T13:19:35;98579.41;;;18.71;60.43
8051;BME280;4068;42.158;24.732;2023-04-26T13:22:02;98572.97;;;18.72;60.26
8051;BME280;4068;42.158;24.732;2023-04-26T13:24:33;98608.47;;;19.09;59.29
8051;BME280;4068;42.158;24.732;2023-04-26T13:26:59;98607.44;;;19.04;58.89
8051;BME280;4068;42.158;24.732;2023-04-26T13:29:24;98597.38;;;19.26;56.05
8051;BME280;4068;42.158;24.732;2023-04-26T13:31:50;98575.63;;;19.07;55.23
8051;BME280;4068;42.158;24.732;2023-04-26T13:34:15;98566.53;;;19.02;54.12
8051;BME280;4068;42.158;24.732;2023-04-26T13:36:41;98591.56;;;19.16;54.51